Maple Valley, Ohio
Current Conditions -  °F | °C
As of 10:12 AM on Tuesday 21 Oct 2014 (Local Time) from KAKR Reporting Station
Light Rain Light Rain  
Wind Chill: 51°   Ceiling: 3600
Heat Index: 51°   Visibility: 8mi
Dew Point: 48°   Wind: 6mph
Humidity: 89%   Direction: 330°NNW
Pressure: 29.91"   Gusts: NA
Location:  41.0789°N, 81.5822°W
Report Text: KAKR 211412Z AUTO 33005KT 8SM -RA SCT010 BKN036 OVC045 11/09 A2991 RMK AO2 P0000 T01060089
Loading
Personal Weather Stations






























Interactive Weather Map
Tropical Storm Tracking
New forecast layout! Learn more

10-Day Weather Forecast

Advertisements
Track Severe Weather on mobile